createdAt,value
2023-01-08T00:01:12.484Z,8.90
2023-01-08T00:03:40.981Z,8.80
2023-01-08T00:06:12.595Z,8.80
2023-01-08T00:08:40.754Z,8.80
2023-01-08T00:11:08.918Z,8.80
2023-01-08T00:13:37.255Z,8.80
2023-01-08T00:16:06.295Z,8.90
2023-01-08T00:18:35.768Z,8.90
2023-01-08T00:21:04.266Z,8.90
2023-01-08T00:23:32.820Z,8.90
2023-01-08T00:26:02.555Z,8.90
2023-01-08T00:28:31.128Z,8.90
2023-01-08T00:31:00.596Z,9.00
2023-01-08T00:33:29.555Z,8.90
2023-01-08T00:35:59.049Z,8.90
2023-01-08T00:38:27.514Z,8.90
2023-01-08T00:40:55.867Z,9.00
2023-01-08T00:43:23.979Z,8.90
2023-01-08T00:45:53.792Z,8.90
2023-01-08T00:48:22.722Z,8.90
2023-01-08T00:50:51.419Z,8.90
2023-01-08T00:53:21.883Z,8.90
2023-01-08T00:55:50.510Z,8.90
2023-01-08T00:58:19.086Z,8.90
2023-01-08T01:00:47.196Z,8.90
2023-01-08T01:03:15.339Z,9.00
2023-01-08T01:05:43.336Z,8.90
2023-01-08T01:08:11.372Z,9.00
2023-01-08T01:10:41.146Z,8.90
2023-01-08T01:13:09.151Z,8.90
2023-01-08T01:15:37.202Z,8.90
2023-01-08T01:18:05.313Z,8.90
2023-01-08T01:20:33.348Z,8.90
2023-01-08T01:23:01.344Z,8.90
2023-01-08T01:25:29.354Z,8.90
2023-01-08T01:27:58.665Z,8.90
2023-01-08T01:30:26.671Z,8.90
2023-01-08T01:32:54.702Z,8.90
2023-01-08T01:35:22.871Z,8.90
2023-01-08T01:37:50.906Z,8.90
2023-01-08T01:40:19.165Z,9.00
2023-01-08T01:42:47.231Z,9.00
2023-01-08T01:45:21.079Z,9.00
2023-01-08T01:47:54.883Z,9.00
2023-01-08T01:50:27.108Z,9.00
2023-01-08T01:53:02.318Z,9.00
2023-01-08T01:55:31.512Z,9.00
2023-01-08T01:58:05.827Z,9.00
2023-01-08T02:00:36.785Z,9.00
2023-01-08T02:03:06.849Z,8.90
2023-01-08T02:05:42.039Z,8.90
2023-01-08T02:08:13.699Z,9.00
2023-01-08T02:10:49.354Z,9.00
2023-01-08T02:13:23.988Z,8.90
2023-01-08T02:15:59.185Z,8.90
2023-01-08T02:18:34.443Z,8.90
2023-01-08T02:21:08.289Z,8.80
2023-01-08T02:23:47.208Z,8.80
2023-01-08T02:26:21.412Z,8.80
2023-01-08T02:28:53.807Z,8.80
2023-01-08T02:31:24.222Z,8.80
2023-01-08T02:33:52.549Z,8.80
2023-01-08T02:36:33.423Z,8.80
2023-01-08T02:39:21.947Z,8.80
2023-01-08T02:42:07.826Z,8.70
2023-01-08T02:44:46.380Z,8.70
2023-01-08T02:47:22.412Z,8.80
2023-01-08T02:49:56.054Z,8.80
2023-01-08T02:52:28.928Z,8.70
2023-01-08T02:55:00.108Z,8.70
2023-01-08T02:57:32.029Z,8.70
2023-01-08T03:00:00.030Z,8.70
2023-01-08T03:02:33.142Z,8.70
2023-01-08T03:05:05.601Z,8.70
2023-01-08T03:07:34.869Z,8.70
2023-01-08T03:10:03.004Z,8.70
2023-01-08T03:12:44.771Z,8.70
2023-01-08T03:15:17.798Z,8.70
2023-01-08T03:17:49.509Z,8.70
2023-01-08T03:20:21.388Z,8.70
2023-01-08T03:22:53.514Z,8.70
2023-01-08T03:25:24.977Z,8.70
2023-01-08T03:27:58.877Z,8.70
2023-01-08T03:30:28.411Z,8.70
2023-01-08T03:33:01.058Z,8.70
2023-01-08T03:35:30.566Z,8.70
2023-01-08T03:38:07.855Z,8.70
2023-01-08T03:40:41.273Z,8.70
2023-01-08T03:43:10.872Z,8.70
2023-01-08T03:45:43.977Z,8.70
2023-01-08T03:48:12.624Z,8.80
2023-01-08T03:50:41.751Z,8.70
2023-01-08T03:53:10.055Z,8.70
2023-01-08T03:55:38.122Z,8.80
2023-01-08T03:58:06.236Z,8.70
2023-01-08T04:00:35.592Z,8.70
2023-01-08T04:03:05.783Z,8.70
2023-01-08T04:05:34.191Z,8.70
2023-01-08T04:08:02.210Z,8.70
2023-01-08T04:10:30.253Z,8.60
2023-01-08T04:12:58.278Z,8.60
2023-01-08T04:15:26.538Z,8.60
2023-01-08T04:17:56.055Z,8.60
2023-01-08T04:20:24.107Z,8.60
2023-01-08T04:22:52.135Z,8.60
2023-01-08T04:25:20.283Z,8.60
2023-01-08T04:27:48.307Z,8.60
2023-01-08T04:30:16.473Z,8.60
2023-01-08T04:32:44.509Z,8.60
2023-01-08T04:35:13.963Z,8.60
2023-01-08T04:37:42.096Z,8.60
2023-01-08T04:40:11.373Z,8.60
2023-01-08T04:42:39.526Z,8.60
2023-01-08T04:45:08.527Z,8.60
2023-01-08T04:47:36.552Z,8.60
2023-01-08T04:50:04.717Z,8.60
2023-01-08T04:52:34.054Z,8.60
2023-01-08T04:55:02.113Z,8.60
2023-01-08T04:57:30.076Z,8.60
2023-01-08T04:59:58.131Z,8.60
2023-01-08T05:02:26.320Z,8.60
2023-01-08T05:04:54.454Z,8.60
2023-01-08T05:07:22.557Z,8.60
2023-01-08T05:09:52.067Z,8.60
2023-01-08T05:12:20.435Z,8.60
2023-01-08T05:14:48.482Z,8.80
2023-01-08T05:17:16.561Z,8.60
2023-01-08T05:19:44.571Z,8.60
2023-01-08T05:22:12.686Z,8.60
2023-01-08T05:24:44.706Z,8.60
2023-01-08T05:27:14.042Z,8.50
2023-01-08T05:29:42.154Z,8.50
2023-01-08T05:32:16.133Z,8.50
2023-01-08T05:34:44.459Z,8.50
2023-01-08T05:37:12.805Z,8.50
2023-01-08T05:39:40.858Z,8.50
2023-01-08T05:42:09.368Z,8.40
2023-01-08T05:44:38.819Z,8.40
2023-01-08T05:47:06.921Z,8.40
2023-01-08T05:49:34.955Z,8.50
2023-01-08T05:52:03.526Z,8.40
2023-01-08T05:54:31.562Z,8.40
2023-01-08T05:56:59.868Z,8.40
2023-01-08T05:59:27.985Z,8.40
2023-01-08T06:01:57.336Z,8.40
2023-01-08T06:04:25.481Z,8.40
2023-01-08T06:06:53.615Z,8.40
2023-01-08T06:09:21.700Z,8.30
2023-01-08T06:11:49.708Z,8.30
2023-01-08T06:14:18.017Z,8.30
2023-01-08T06:16:46.141Z,8.30
2023-01-08T06:19:15.571Z,8.30
2023-01-08T06:21:43.541Z,8.30
2023-01-08T06:24:11.689Z,8.30
2023-01-08T06:26:39.678Z,8.30
2023-01-08T06:29:08.295Z,8.30
2023-01-08T06:31:36.362Z,8.20
2023-01-08T06:34:04.459Z,8.30
2023-01-08T06:36:33.932Z,8.20
2023-01-08T06:39:01.896Z,8.30
2023-01-08T06:41:29.871Z,8.20
2023-01-08T06:43:57.858Z,8.20
2023-01-08T06:46:25.886Z,8.20
2023-01-08T06:48:54.053Z,8.20
2023-01-08T06:51:22.069Z,8.20
2023-01-08T06:53:51.519Z,8.20
2023-01-08T06:56:19.592Z,8.20
2023-01-08T06:58:47.558Z,8.20
2023-01-08T07:01:17.369Z,8.20
2023-01-08T07:03:45.891Z,8.10
2023-01-08T07:06:16.806Z,8.10
2023-01-08T07:08:45.316Z,8.10
2023-01-08T07:11:15.981Z,8.10
2023-01-08T07:13:44.192Z,8.10
2023-01-08T07:16:13.850Z,8.10
2023-01-08T07:18:42.239Z,8.10
2023-01-08T07:21:10.574Z,8.10
2023-01-08T07:23:38.903Z,8.10
2023-01-08T07:26:08.407Z,8.10
2023-01-08T07:28:37.845Z,8.00
2023-01-08T07:31:07.155Z,8.10
2023-01-08T07:33:35.779Z,8.00
2023-01-08T07:36:03.819Z,8.00
2023-01-08T07:38:31.974Z,8.00
2023-01-08T07:41:00.165Z,8.00
2023-01-08T07:43:30.010Z,8.00
2023-01-08T07:45:59.500Z,8.10
2023-01-08T07:48:27.555Z,8.10
2023-01-08T07:50:55.736Z,8.00
2023-01-08T07:53:24.088Z,8.00
2023-01-08T07:55:52.084Z,8.10
2023-01-08T07:58:20.083Z,8.10
2023-01-08T08:00:48.124Z,8.10
2023-01-08T08:03:17.643Z,8.10
2023-01-08T08:05:45.811Z,8.10
2023-01-08T08:08:14.255Z,8.10
2023-01-08T08:10:43.856Z,8.10
2023-01-08T08:13:12.760Z,8.10
2023-01-08T08:15:41.186Z,8.10
2023-01-08T08:18:09.503Z,8.10
2023-01-08T08:20:39.660Z,8.20
2023-01-08T08:23:09.341Z,8.10
2023-01-08T08:25:38.225Z,8.10
2023-01-08T08:28:07.092Z,8.10
2023-01-08T08:30:36.446Z,8.20
2023-01-08T08:33:06.470Z,8.10
2023-01-08T08:35:35.910Z,8.20
2023-01-08T08:38:05.984Z,8.20
2023-01-08T08:40:34.218Z,8.20
2023-01-08T08:43:04.876Z,8.20
2023-01-08T08:45:32.893Z,8.20
2023-01-08T08:48:00.884Z,8.20
2023-01-08T08:50:29.229Z,8.20
2023-01-08T08:53:00.296Z,8.20
2023-01-08T08:55:29.933Z,8.30
2023-01-08T08:58:05.345Z,8.20
2023-01-08T09:00:33.971Z,8.20
2023-01-08T09:03:02.146Z,8.30
2023-01-08T09:05:30.859Z,8.30
2023-01-08T09:07:59.742Z,8.30
2023-01-08T09:10:29.233Z,8.40
2023-01-08T09:12:57.456Z,8.40
2023-01-08T09:15:25.483Z,8.40
2023-01-08T09:17:55.371Z,8.40
2023-01-08T09:20:23.674Z,8.50
2023-01-08T09:22:51.845Z,8.50
2023-01-08T09:25:19.937Z,8.60
2023-01-08T09:27:49.468Z,8.60
2023-01-08T09:30:17.667Z,8.60
2023-01-08T09:32:45.654Z,8.60
2023-01-08T09:35:13.687Z,8.60
2023-01-08T09:37:41.831Z,8.70
2023-01-08T09:40:15.914Z,8.70
2023-01-08T09:42:44.089Z,8.80
2023-01-08T09:45:23.921Z,8.80
2023-01-08T09:47:52.399Z,8.70
2023-01-08T09:50:21.908Z,8.80
2023-01-08T09:52:49.975Z,8.80
2023-01-08T09:55:18.418Z,8.70
2023-01-08T09:57:48.039Z,8.80
2023-01-08T10:00:21.581Z,8.80
2023-01-08T10:02:50.310Z,8.90
2023-01-08T10:05:19.414Z,8.80
2023-01-08T10:07:48.709Z,8.90
2023-01-08T10:10:22.701Z,8.90
2023-01-08T10:12:51.660Z,9.00
2023-01-08T10:15:23.147Z,9.00
2023-01-08T10:17:57.186Z,9.00
2023-01-08T10:20:29.706Z,9.00
2023-01-08T10:23:09.064Z,9.10
2023-01-08T10:25:50.808Z,9.10
2023-01-08T10:28:21.986Z,9.20
2023-01-08T10:30:52.106Z,9.30
2023-01-08T10:33:24.324Z,9.20
2023-01-08T10:35:55.860Z,9.20
2023-01-08T10:38:33.082Z,9.10
2023-01-08T10:41:04.299Z,9.10
2023-01-08T10:43:35.781Z,9.20
2023-01-08T10:46:07.773Z,9.20
2023-01-08T10:48:38.934Z,9.20
2023-01-08T10:51:08.848Z,9.10
2023-01-08T10:53:36.853Z,9.00
2023-01-08T10:56:06.599Z,9.00
2023-01-08T10:58:43.148Z,8.90
2023-01-08T11:01:17.658Z,8.90
2023-01-08T11:03:51.436Z,8.90
2023-01-08T11:06:23.485Z,8.90
2023-01-08T11:08:53.807Z,8.80
2023-01-08T11:11:22.659Z,8.80
2023-01-08T11:13:57.464Z,8.90
2023-01-08T11:16:35.344Z,9.00
2023-01-08T11:19:04.572Z,9.10
2023-01-08T11:21:36.089Z,9.20
2023-01-08T11:24:17.984Z,9.20
2023-01-08T11:26:50.083Z,9.20
2023-01-08T11:29:23.536Z,9.20
2023-01-08T11:31:58.469Z,9.20
2023-01-08T11:34:32.592Z,9.30
2023-01-08T11:37:06.295Z,9.20
2023-01-08T11:39:38.567Z,9.20
2023-01-08T11:42:27.977Z,9.30
2023-01-08T11:45:26.106Z,9.30
2023-01-08T11:48:25.037Z,9.40
2023-01-08T11:51:08.017Z,9.50
2023-01-08T11:53:42.251Z,9.50
2023-01-08T11:56:21.502Z,9.50
2023-01-08T11:59:06.676Z,9.50
2023-01-08T12:01:51.149Z,9.50
2023-01-08T12:04:51.840Z,9.60
2023-01-08T12:07:25.905Z,9.50
2023-01-08T12:10:02.041Z,9.40
2023-01-08T12:12:42.211Z,9.50
2023-01-08T12:15:19.146Z,9.50
2023-01-08T12:18:09.154Z,9.50
2023-01-08T12:20:43.956Z,9.60
2023-01-08T12:23:29.435Z,9.70
2023-01-08T12:26:20.479Z,9.80
2023-01-08T12:29:13.693Z,9.70
2023-01-08T12:32:07.244Z,9.60
2023-01-08T12:34:42.891Z,9.60
2023-01-08T12:37:18.981Z,9.60
2023-01-08T12:39:56.689Z,9.50
2023-01-08T12:42:28.684Z,9.50
2023-01-08T12:45:00.219Z,9.50
2023-01-08T12:47:32.083Z,9.70
2023-01-08T12:50:10.356Z,9.80
2023-01-08T12:52:48.682Z,9.80
2023-01-08T12:55:36.712Z,10.00
2023-01-08T12:58:15.680Z,10.00
2023-01-08T13:00:53.674Z,9.90
2023-01-08T13:03:26.261Z,9.90
2023-01-08T13:05:54.702Z,9.90
2023-01-08T13:08:32.555Z,9.80
2023-01-08T13:11:01.371Z,9.80
2023-01-08T13:13:32.091Z,9.80
2023-01-08T13:16:24.410Z,9.80
2023-01-08T13:18:54.538Z,9.90
2023-01-08T13:21:37.428Z,9.90
2023-01-08T13:24:28.723Z,9.80
2023-01-08T13:26:57.668Z,9.70
2023-01-08T13:29:38.081Z,9.60
2023-01-08T13:32:24.286Z,9.50
2023-01-08T13:35:03.629Z,9.50
2023-01-08T13:37:32.197Z,9.60
2023-01-08T13:40:04.114Z,9.50
2023-01-08T13:42:32.554Z,9.50
2023-01-08T13:45:03.076Z,9.50
2023-01-08T13:47:34.571Z,9.60
2023-01-08T13:50:05.334Z,9.70
2023-01-08T13:52:37.791Z,9.50
2023-01-08T13:55:15.375Z,9.50
2023-01-08T13:57:46.437Z,9.50
2023-01-08T14:00:25.189Z,9.40
2023-01-08T14:02:55.015Z,9.30
2023-01-08T14:05:26.706Z,9.30
2023-01-08T14:07:54.763Z,9.20
2023-01-08T14:10:25.135Z,9.10
2023-01-08T14:12:54.387Z,9.00
2023-01-08T14:15:25.968Z,9.00
2023-01-08T14:17:54.857Z,9.00
2023-01-08T14:20:33.254Z,9.00
2023-01-08T14:23:02.299Z,8.90
2023-01-08T14:25:31.914Z,8.90
2023-01-08T14:28:02.596Z,8.90
2023-01-08T14:30:31.303Z,8.90
2023-01-08T14:33:00.824Z,8.90
2023-01-08T14:35:32.672Z,8.90
2023-01-08T14:38:02.702Z,8.80
2023-01-08T14:40:38.901Z,8.80
2023-01-08T14:43:12.463Z,8.80
2023-01-08T14:45:45.949Z,8.90
2023-01-08T14:48:19.471Z,8.80
2023-01-08T14:51:00.748Z,8.80
2023-01-08T14:53:32.711Z,8.70
2023-01-08T14:56:03.556Z,8.60
2023-01-08T14:58:37.210Z,8.60
2023-01-08T15:01:08.597Z,8.60
2023-01-08T15:03:38.933Z,8.50
2023-01-08T15:06:11.214Z,8.50
2023-01-08T15:08:41.678Z,8.40
2023-01-08T15:11:23.018Z,8.40
2023-01-08T15:13:52.966Z,8.40
2023-01-08T15:16:29.491Z,8.30
2023-01-08T15:19:03.611Z,8.30
2023-01-08T15:21:31.950Z,8.30
2023-01-08T15:24:01.648Z,8.30
2023-01-08T15:26:31.212Z,8.30
2023-01-08T15:29:01.505Z,8.20
2023-01-08T15:31:31.496Z,8.20
2023-01-08T15:34:01.203Z,8.30
2023-01-08T15:36:29.302Z,8.20
2023-01-08T15:38:57.414Z,8.20
2023-01-08T15:41:43.331Z,8.10
2023-01-08T15:44:13.427Z,8.10
2023-01-08T15:46:41.496Z,8.10
2023-01-08T15:49:10.607Z,8.10
2023-01-08T15:51:42.924Z,8.10
2023-01-08T15:54:12.689Z,8.10
2023-01-08T15:56:41.070Z,8.10
2023-01-08T15:59:09.378Z,8.00
2023-01-08T16:01:39.430Z,8.00
2023-01-08T16:04:07.545Z,8.00
2023-01-08T16:06:36.260Z,8.00
2023-01-08T16:09:05.033Z,8.00
2023-01-08T16:11:33.033Z,7.90
2023-01-08T16:14:01.088Z,7.90
2023-01-08T16:16:29.157Z,7.90
2023-01-08T16:19:00.329Z,7.90
2023-01-08T16:21:28.345Z,7.90
2023-01-08T16:23:56.352Z,8.00
2023-01-08T16:26:24.532Z,7.90
2023-01-08T16:28:52.506Z,7.90
2023-01-08T16:31:20.552Z,7.80
2023-01-08T16:33:48.541Z,7.70
2023-01-08T16:36:17.924Z,7.60
2023-01-08T16:38:50.069Z,7.50
2023-01-08T16:41:18.102Z,7.40
2023-01-08T16:43:46.245Z,7.40
2023-01-08T16:46:16.277Z,7.30
2023-01-08T16:48:44.680Z,7.30
2023-01-08T16:51:14.307Z,7.30
2023-01-08T16:53:44.138Z,7.20
2023-01-08T16:56:12.223Z,7.20
2023-01-08T16:59:47.961Z,7.20
2023-01-08T17:02:16.211Z,7.20
2023-01-08T17:04:44.992Z,7.20
2023-01-08T17:07:14.491Z,7.20
2023-01-08T17:09:44.065Z,7.20
2023-01-08T17:12:12.139Z,7.20
2023-01-08T17:14:40.176Z,7.10
2023-01-08T17:17:08.202Z,7.00
2023-01-08T17:19:36.237Z,7.00
2023-01-08T17:22:04.261Z,6.90
2023-01-08T17:24:32.269Z,6.90
2023-01-08T17:27:01.639Z,6.90
2023-01-08T17:29:29.636Z,6.80
2023-01-08T17:31:57.823Z,6.70
2023-01-08T17:34:26.031Z,6.60
2023-01-08T17:36:54.236Z,6.60
2023-01-08T17:39:22.284Z,6.50
2023-01-08T17:42:07.718Z,6.40
2023-01-08T17:44:37.090Z,6.30
2023-01-08T17:47:05.176Z,6.20
2023-01-08T17:49:33.152Z,6.20
2023-01-08T17:52:02.142Z,6.00
2023-01-08T17:54:30.876Z,6.00
2023-01-08T17:56:58.890Z,6.00
2023-01-08T17:59:26.884Z,6.00
2023-01-08T18:01:57.681Z,5.90
2023-01-08T18:04:25.747Z,5.90
2023-01-08T18:06:53.807Z,5.70
2023-01-08T18:09:21.905Z,5.60
2023-01-08T18:11:49.985Z,5.60
2023-01-08T18:14:17.961Z,5.60
2023-01-08T18:16:46.095Z,5.50
2023-01-08T18:19:16.701Z,5.50
2023-01-08T18:21:45.061Z,5.50
2023-01-08T18:24:13.899Z,5.50
2023-01-08T18:26:42.583Z,5.60
2023-01-08T18:29:10.783Z,5.60
2023-01-08T18:31:38.965Z,5.60
2023-01-08T18:34:07.089Z,5.60
2023-01-08T18:36:36.924Z,5.70
2023-01-08T18:39:05.095Z,5.80
2023-01-08T18:41:50.964Z,5.80
2023-01-08T18:44:19.249Z,5.90
2023-01-08T18:46:48.253Z,5.90
2023-01-08T18:49:16.677Z,5.90
2023-01-08T18:51:46.023Z,5.90
2023-01-08T18:54:14.080Z,5.90
2023-01-08T18:56:42.219Z,5.80
2023-01-08T18:59:11.708Z,5.90
2023-01-08T19:01:41.511Z,5.80
2023-01-08T19:04:15.010Z,5.90
2023-01-08T19:06:43.028Z,5.90
2023-01-08T19:09:12.427Z,5.90
2023-01-08T19:11:42.158Z,5.90
2023-01-08T19:14:12.412Z,5.90
2023-01-08T19:16:40.947Z,5.90
2023-01-08T19:19:08.941Z,5.90
2023-01-08T19:21:36.981Z,5.80
2023-01-08T19:24:05.468Z,5.80
2023-01-08T19:26:34.879Z,5.90
2023-01-08T19:29:04.890Z,5.90
2023-01-08T19:31:33.292Z,5.90
2023-01-08T19:34:02.205Z,5.80
2023-01-08T19:36:30.513Z,5.80
2023-01-08T19:38:58.555Z,5.80
2023-01-08T19:41:44.032Z,5.80
2023-01-08T19:44:13.504Z,5.80
2023-01-08T19:46:41.619Z,5.90
2023-01-08T19:49:10.072Z,5.90
2023-01-08T19:51:38.080Z,5.90
2023-01-08T19:54:06.287Z,6.00
2023-01-08T19:56:34.379Z,6.10
2023-01-08T19:59:02.383Z,6.20
2023-01-08T20:01:33.565Z,6.30
2023-01-08T20:04:01.728Z,6.30
2023-01-08T20:06:29.775Z,6.40
2023-01-08T20:08:59.432Z,6.40
2023-01-08T20:11:28.566Z,6.40
2023-01-08T20:14:00.337Z,6.50
2023-01-08T20:16:29.498Z,6.50
2023-01-08T20:19:01.992Z,6.60
2023-01-08T20:21:30.165Z,6.60
2023-01-08T20:24:00.550Z,6.70
2023-01-08T20:26:31.688Z,6.70
2023-01-08T20:29:00.377Z,6.70
2023-01-08T20:31:31.105Z,6.80
2023-01-08T20:34:02.054Z,6.90
2023-01-08T20:36:32.093Z,6.90
2023-01-08T20:39:02.865Z,6.90
2023-01-08T20:41:31.074Z,7.00
2023-01-08T20:43:59.235Z,7.00
2023-01-08T20:46:29.425Z,7.00
2023-01-08T20:48:59.587Z,7.00
2023-01-08T20:51:29.077Z,7.10
2023-01-08T20:53:57.219Z,7.10
2023-01-08T20:56:25.340Z,7.00
2023-01-08T20:58:53.425Z,7.10
2023-01-08T21:01:23.938Z,7.00
2023-01-08T21:03:55.205Z,7.10
2023-01-08T21:06:24.903Z,7.00
2023-01-08T21:08:56.058Z,7.00
2023-01-08T21:11:25.239Z,7.10
2023-01-08T21:13:53.295Z,7.10
2023-01-08T21:16:23.382Z,7.10
2023-01-08T21:18:52.028Z,7.10
2023-01-08T21:21:21.639Z,7.10
2023-01-08T21:23:50.009Z,7.10
2023-01-08T21:26:20.284Z,7.20
2023-01-08T21:28:49.736Z,7.20
2023-01-08T21:31:20.297Z,7.30
2023-01-08T21:33:49.802Z,7.20
2023-01-08T21:36:19.537Z,7.20
2023-01-08T21:38:48.074Z,7.20
2023-01-08T21:41:33.663Z,7.20
2023-01-08T21:44:19.469Z,7.20
2023-01-08T21:46:48.090Z,7.20
2023-01-08T21:49:16.307Z,7.20
2023-01-08T21:52:01.768Z,7.30
2023-01-08T21:54:29.840Z,7.30
2023-01-08T21:56:59.234Z,7.30
2023-01-08T21:59:27.256Z,7.30
2023-01-08T22:01:55.364Z,7.30
2023-01-08T22:04:23.882Z,7.30
2023-01-08T22:06:53.846Z,7.30
2023-01-08T22:09:22.247Z,7.30
2023-01-08T22:11:50.284Z,7.30
2023-01-08T22:14:19.679Z,7.30
2023-01-08T22:16:47.746Z,7.30
2023-01-08T22:19:16.092Z,7.30
2023-01-08T22:21:44.185Z,7.30
2023-01-08T22:24:12.283Z,7.30
2023-01-08T22:26:40.474Z,7.30
2023-01-08T22:29:08.534Z,7.40
2023-01-08T22:31:37.932Z,7.30
2023-01-08T22:34:06.037Z,7.30
2023-01-08T22:36:34.137Z,7.30
2023-01-08T22:39:02.180Z,7.30
2023-01-08T22:41:30.264Z,7.30
2023-01-08T22:43:58.434Z,7.30
2023-01-08T22:46:26.809Z,7.30
2023-01-08T22:48:56.236Z,7.40
2023-01-08T22:51:27.162Z,7.30
2023-01-08T22:53:55.541Z,7.20
2023-01-08T22:56:23.736Z,7.30
2023-01-08T22:58:52.229Z,7.30
2023-01-08T23:01:22.821Z,7.20
2023-01-08T23:03:51.139Z,7.40
2023-01-08T23:06:22.096Z,7.30
2023-01-08T23:08:50.466Z,7.30
2023-01-08T23:11:20.595Z,7.20
2023-01-08T23:13:50.550Z,7.20
2023-01-08T23:16:21.849Z,7.20
2023-01-08T23:18:50.967Z,7.20
2023-01-08T23:21:22.081Z,7.20
2023-01-08T23:23:50.243Z,7.20
2023-01-08T23:26:20.475Z,7.30
2023-01-08T23:28:50.153Z,7.30
2023-01-08T23:31:20.414Z,7.30
2023-01-08T23:33:48.612Z,7.30
2023-01-08T23:36:20.835Z,7.30
2023-01-08T23:38:52.318Z,7.30
2023-01-08T23:41:21.575Z,7.20
2023-01-08T23:43:50.163Z,7.20
2023-01-08T23:46:18.446Z,7.20
2023-01-08T23:48:46.556Z,7.30
2023-01-08T23:51:14.630Z,7.30
2023-01-08T23:53:42.664Z,7.30
2023-01-08T23:56:12.067Z,7.30
2023-01-08T23:58:40.110Z,7.30
